Orlando, Florida
Traffic Map
Current Weather Conditions
Orlando, Florida
Overcast
Overcast
23°
Feels Like: 23°
Wind Chill: 23° Ceiling: 6000
Heat Index: 23° Visibility: 10mi
Dew Point: 19° Wind: 13mph
Humidity: 79% Direction: 130° (SE)
Pressure: 30.16in Gusts: 0mph
Raw Report DataKORL 040153Z 13011KT 10SM OVC060 23/19 A3016 RMK AO2 SLP217 T02280189
Traffic Incident Summary
Active as of:
Severity:
Category:
InformationThere was an issue retrieving the traffic information for this location. Please try a different location or try again shortly.
Advertisements
Track Severe Weather on mobile